Time;durP1;ratioP1;P1;durP2;ratioP2;P2;SDS_P1;SDS_P2;PMS_P1;PMS_P2;Temp;Humidity;BMP_temperature;BMP_pressure;BME280_temperature;BME280_humidity;BME280_pressure;Samples;Min_cycle;Max_cycle;Signal;HPM_P1;HPM_P2
2024/03/18 00:01:04;;;;;;;49.38;37.53;;;;;;;;;;4406240;32;20023;-80
2024/03/18 00:03:31;;;;;;;49.80;36.92;;;;;;;;;;4392348;32;20031;-80
2024/03/18 00:05:56;;;;;;;52.45;38.05;;;;;;;;;;4391709;32;20100;-81
2024/03/18 00:08:21;;;;;;;48.53;37.05;;;;;;;;;;4406078;32;20371;-80
2024/03/18 00:10:46;;;;;;;50.33;36.33;;;;;;;;;;4405085;32;20053;-80
2024/03/18 00:13:12;;;;;;;45.08;34.13;;;;;;;;;;4405890;32;20053;-80
2024/03/18 00:15:37;;;;;;;47.05;35.40;;;;;;;;;;4405594;32;20094;-80
2024/03/18 00:18:03;;;;;;;48.28;35.85;;;;;;;;;;4392700;32;20084;-82
2024/03/18 00:20:28;;;;;;;49.67;37.45;;;;;;;;;;4408156;32;20027;-81
2024/03/18 00:22:54;;;;;;;45.33;34.72;;;;;;;;;;4398662;32;20026;-80
2024/03/18 00:25:19;;;;;;;47.60;34.85;;;;;;;;;;4411388;32;20079;-81
2024/03/18 00:27:44;;;;;;;55.25;37.88;;;;;;;;;;4392915;32;20048;-79
2024/03/18 00:30:12;;;;;;;48.40;35.85;;;;;;;;;;4405543;32;20042;-80
2024/03/18 00:32:39;;;;;;;56.13;37.95;;;;;;;;;;4392324;32;20022;-82
2024/03/18 00:35:05;;;;;;;56.55;39.20;;;;;;;;;;4406398;32;20054;-81
2024/03/18 00:37:30;;;;;;;;;;;;;;;;;;4392855;32;20076;-81
2024/03/18 00:39:55;;;;;;;53.25;38.03;;;;;;;;;;4391640;32;19988;-79
2024/03/18 00:42:21;;;;;;;55.20;37.33;;;;;;;;;;4392611;32;20038;-80
2024/03/18 00:44:46;;;;;;;59.42;40.85;;;;;;;;;;4406506;32;20031;-81
2024/03/18 00:47:11;;;;;;;56.22;38.70;;;;;;;;;;4393451;32;20571;-80
2024/03/18 00:49:38;;;;;;;58.33;40.08;;;;;;;;;;4392387;32;20106;-80
2024/03/18 00:52:03;;;;;;;53.85;37.78;;;;;;;;;;4406947;32;20058;-82
2024/03/18 00:54:29;;;;;;;55.95;38.00;;;;;;;;;;4394445;32;20042;-83
2024/03/18 00:56:54;;;;;;;49.30;37.08;;;;;;;;;;4408521;32;20022;-83
2024/03/18 00:59:20;;;;;;;58.00;38.03;;;;;;;;;;4397074;32;20045;-80
2024/03/18 01:01:45;;;;;;;57.78;37.97;;;;;;;;;;4399239;32;20019;-80
2024/03/18 01:04:11;;;;;;;67.97;39.17;;;;;;;;;;4399542;32;20031;-82
2024/03/18 01:06:36;;;;;;;56.20;38.53;;;;;;;;;;4403318;32;20079;-80
2024/03/18 01:09:03;;;;;;;51.80;36.65;;;;;;;;;;4398774;32;20449;-80
2024/03/18 01:11:29;;;;;;;56.50;38.75;;;;;;;;;;4411482;32;20055;-80
2024/03/18 01:13:54;;;;;;;;;;;;;;;;;;4401661;32;20114;-80
2024/03/18 01:16:20;;;;;;;53.97;37.10;;;;;;;;;;4425644;32;20254;-80
2024/03/18 01:18:46;;;;;;;51.25;34.25;;;;;;;;;;4425781;32;20048;-82
2024/03/18 01:21:11;;;;;;;57.13;38.17;;;;;;;;;;4424221;32;20400;-81
2024/03/18 01:23:37;;;;;;;52.28;36.42;;;;;;;;;;4426311;32;20100;-80
2024/03/18 01:26:02;;;;;;;;;;;;;;;;;;4424644;32;20107;-81
2024/03/18 01:28:27;;;;;;;53.05;35.67;;;;;;;;;;4409785;32;19937;-81
2024/03/18 01:30:53;;;;;;;55.55;35.70;;;;;;;;;;4423235;32;20231;-79
2024/03/18 01:33:18;;;;;;;51.50;36.30;;;;;;;;;;4409949;32;20120;-80
2024/03/18 01:35:43;;;;;;;;;;;;;;;;;;4424275;32;20347;-81
2024/03/18 01:38:08;;;;;;;68.80;40.85;;;;;;;;;;4424294;32;19937;-82
2024/03/18 01:40:34;;;;;;;54.90;37.40;;;;;;;;;;4409472;32;20129;-80
2024/03/18 01:43:00;;;;;;;59.67;37.67;;;;;;;;;;4424553;32;20093;-81
2024/03/18 01:45:25;;;;;;;;;;;;;;;;;;4424624;32;20022;-81
2024/03/18 01:47:51;;;;;;;68.10;39.38;;;;;;;;;;4410664;32;19940;-83
2024/03/18 01:50:17;;;;;;;59.65;39.33;;;;;;;;;;4410975;32;20395;-82
2024/03/18 01:52:43;;;;;;;;;;;;;;;;;;4412545;32;20049;-82
2024/03/18 01:55:10;;;;;;;61.50;36.58;;;;;;;;;;4412514;32;19934;-81
2024/03/18 01:57:36;;;;;;;57.97;37.70;;;;;;;;;;4412323;32;20021;-82
2024/03/18 02:00:04;;;;;;;55.03;36.25;;;;;;;;;;4427236;32;20378;-81
2024/03/18 02:02:30;;;;;;;51.97;34.30;;;;;;;;;;4425200;32;20072;-81
2024/03/18 02:04:55;;;;;;;;;;;;;;;;;;4411745;32;20068;-81
2024/03/18 02:07:22;;;;;;;61.03;39.50;;;;;;;;;;4425842;32;19948;-83
2024/03/18 02:09:48;;;;;;;55.28;36.15;;;;;;;;;;4411750;32;20113;-82
2024/03/18 02:12:13;;;;;;;;;;;;;;;;;;4412261;32;20061;-82
2024/03/18 02:14:38;;;;;;;59.42;39.80;;;;;;;;;;4410964;32;20058;-82
2024/03/18 02:17:04;;;;;;;;;;;;;;;;;;4425194;32;20515;-83
2024/03/18 02:19:29;;;;;;;57.30;37.78;;;;;;;;;;4425571;32;19933;-82
2024/03/18 02:21:54;;;;;;;;;;;;;;;;;;4424176;32;20179;-82
2024/03/18 02:24:21;;;;;;;61.67;37.97;;;;;;;;;;4411239;32;19938;-83
2024/03/18 02:26:47;;;;;;;60.38;37.58;;;;;;;;;;4422758;32;20391;-81
2024/03/18 02:29:13;;;;;;;63.75;38.38;;;;;;;;;;4397945;32;20107;-82
2024/03/18 02:31:38;;;;;;;;;;;;;;;;;;4410421;32;20030;-84
2024/03/18 02:34:03;;;;;;;59.55;36.47;;;;;;;;;;4395610;32;19937;-82
2024/03/18 02:36:29;;;;;;;;;;;;;;;;;;4409035;32;20030;-84
2024/03/18 02:38:56;;;;;;;64.53;38.08;;;;;;;;;;4404946;32;19941;-83
2024/03/18 02:41:21;;;;;;;63.83;38.17;;;;;;;;;;4408889;32;20041;-82
2024/03/18 02:43:46;;;;;;;;;;;;;;;;;;4423267;32;20022;-83
2024/03/18 02:46:11;;;;;;;49.90;34.28;;;;;;;;;;4408551;32;19942;-83
2024/03/18 02:48:37;;;;;;;;;;;;;;;;;;4423089;32;20153;-84
2024/03/18 02:51:04;;;;;;;53.38;34.40;;;;;;;;;;4422596;32;19987;-83
2024/03/18 02:53:30;;;;;;;61.35;36.88;;;;;;;;;;4422426;32;20083;-83
2024/03/18 02:55:55;;;;;;;;;;;;;;;;;;4408825;32;20070;-84
2024/03/18 02:58:20;;;;;;;53.38;33.78;;;;;;;;;;4422614;32;20540;-84
2024/03/18 03:00:46;;;;;;;61.37;34.58;;;;;;;;;;4422576;32;20022;-83
2024/03/18 03:03:11;;;;;;;;;;;;;;;;;;4422592;32;20050;-84
2024/03/18 03:05:37;;;;;;;51.97;33.38;;;;;;;;;;4408510;32;19980;-84
2024/03/18 03:08:04;;;;;;;49.03;31.65;;;;;;;;;;4422661;32;20103;-85
2024/03/18 03:10:29;;;;;;;49.10;31.42;;;;;;;;;;4408372;32;20463;-85
2024/03/18 03:12:54;;;;;;;64.55;35.13;;;;;;;;;;4421949;32;20034;-82
2024/03/18 03:15:20;;;;;;;46.10;31.20;;;;;;;;;;4422306;32;20029;-82
2024/03/18 03:17:45;;;;;;;45.12;31.83;;;;;;;;;;4423334;32;20048;-82
2024/03/18 03:20:12;;;;;;;;;;;;;;;;;;4408254;32;20052;-82
2024/03/18 03:22:38;;;;;;;48.80;30.27;;;;;;;;;;4408400;32;19929;-84
2024/03/18 03:25:04;;;;;;;48.03;30.45;;;;;;;;;;4421686;32;20207;-83
2024/03/18 03:27:29;;;;;;;;;;;;;;;;;;4409078;32;20049;-83
2024/03/18 03:29:54;;;;;;;53.08;30.45;;;;;;;;;;4422109;32;19947;-82
2024/03/18 03:32:19;;;;;;;54.17;30.40;;;;;;;;;;4409005;32;20364;-83
2024/03/18 03:34:45;;;;;;;48.17;29.30;;;;;;;;;;4396138;32;20054;-82
2024/03/18 03:37:10;;;;;;;48.63;30.52;;;;;;;;;;4393017;32;20045;-83
2024/03/18 03:39:35;;;;;;;48.17;28.92;;;;;;;;;;4407755;32;20030;-82
2024/03/18 03:42:01;;;;;;;;;;;;;;;;;;4413003;32;20042;-83
2024/03/18 03:44:26;;;;;;;46.88;28.92;;;;;;;;;;4408660;32;19972;-83
2024/03/18 03:46:52;;;;;;;44.28;28.30;;;;;;;;;;4407940;32;20103;-83
2024/03/18 03:49:19;;;;;;;46.95;29.87;;;;;;;;;;4408120;32;20026;-83
2024/03/18 03:51:45;;;;;;;47.60;27.00;;;;;;;;;;4422784;32;20064;-83
2024/03/18 03:54:10;;;;;;;43.87;28.55;;;;;;;;;;4408090;32;20467;-84
2024/03/18 03:56:37;;;;;;;48.70;29.77;;;;;;;;;;4408592;32;20026;-84
2024/03/18 03:59:04;;;;;;;45.33;26.98;;;;;;;;;;4425060;32;20026;-83
2024/03/18 04:01:29;;;;;;;44.65;28.05;;;;;;;;;;4400395;32;20026;-86
2024/03/18 04:03:54;;;;;;;;;;;;;;;;;;4411482;32;20082;-85
2024/03/18 04:06:19;;;;;;;45.35;26.62;;;;;;;;;;4410383;32;19938;-83
2024/03/18 04:08:45;;;;;;;41.97;27.30;;;;;;;;;;4408683;32;20499;-83
2024/03/18 04:11:10;;;;;;;41.00;25.37;;;;;;;;;;4408787;32;20061;-85
2024/03/18 04:13:35;;;;;;;55.35;28.48;;;;;;;;;;4408512;32;20091;-83
2024/03/18 04:16:01;;;;;;;50.75;29.23;;;;;;;;;;4407584;32;20349;-82
2024/03/18 04:18:27;;;;;;;41.97;26.77;;;;;;;;;;4407388;32;20036;-83
2024/03/18 04:20:53;;;;;;;;;;;;;;;;;;4408034;32;20054;-84
2024/03/18 04:23:19;;;;;;;39.72;26.75;;;;;;;;;;4407662;32;19952;-84
2024/03/18 04:25:44;;;;;;;44.45;27.52;;;;;;;;;;4407318;32;20018;-83
2024/03/18 04:28:09;;;;;;;;;;;;;;;;;;4407701;32;20018;-84
2024/03/18 04:30:36;;;;;;;45.40;28.93;;;;;;;;;;4407498;32;19948;-84
2024/03/18 04:33:02;;;;;;;46.22;28.35;;;;;;;;;;4407765;32;20442;-85
2024/03/18 04:35:28;;;;;;;;;;;;;;;;;;4407764;32;20022;-84
2024/03/18 04:37:55;;;;;;;43.35;28.20;;;;;;;;;;4407392;32;19977;-84
2024/03/18 04:40:23;;;;;;;45.33;28.42;;;;;;;;;;4409416;32;20090;-84
2024/03/18 04:42:49;;;;;;;47.70;27.65;;;;;;;;;;4411333;32;20034;-84
2024/03/18 04:45:16;;;;;;;49.15;29.80;;;;;;;;;;4411888;32;20339;-84
2024/03/18 04:47:46;;;;;;;41.83;27.62;;;;;;;;;;4419686;32;20030;-84
2024/03/18 04:50:15;;;;;;;42.35;27.73;;;;;;;;;;4418829;32;20430;-85
2024/03/18 04:52:41;;;;;;;45.12;27.37;;;;;;;;;;4411653;32;20026;-85
2024/03/18 04:55:07;;;;;;;56.65;29.40;;;;;;;;;;4410844;32;20049;-84
2024/03/18 04:57:33;;;;;;;41.67;28.10;;;;;;;;;;4410544;32;20418;-84
2024/03/18 04:59:58;;;;;;;;;;;;;;;;;;4411026;32;20079;-84
2024/03/18 05:02:23;;;;;;;40.53;27.13;;;;;;;;;;4410298;32;19957;-84
2024/03/18 05:04:49;;;;;;;47.80;29.17;;;;;;;;;;4410346;32;20018;-84
2024/03/18 05:07:18;;;;;;;41.42;26.83;;;;;;;;;;4409782;32;20022;-83
2024/03/18 05:09:46;;;;;;;47.10;27.77;;;;;;;;;;4410480;32;20061;-83
2024/03/18 05:12:12;;;;;;;43.10;27.80;;;;;;;;;;4409645;32;20041;-83
2024/03/18 05:14:37;;;;;;;;;;;;;;;;;;4410455;32;20056;-82
2024/03/18 05:17:03;;;;;;;41.50;25.85;;;;;;;;;;4424703;32;20014;-82
2024/03/18 05:19:28;;;;;;;39.10;27.27;;;;;;;;;;4411613;32;20014;-82
2024/03/18 05:21:53;;;;;;;42.65;27.92;;;;;;;;;;4413176;32;20022;-82
2024/03/18 05:24:19;;;;;;;45.38;27.73;;;;;;;;;;4415107;32;20066;-83
2024/03/18 05:26:45;;;;;;;39.17;25.88;;;;;;;;;;4412922;32;20175;-81
2024/03/18 05:29:11;;;;;;;47.42;27.92;;;;;;;;;;4424594;32;20022;-81
2024/03/18 05:31:36;;;;;;;;;;;;;;;;;;4408525;32;20056;-81
2024/03/18 05:34:04;;;;;;;42.45;26.23;;;;;;;;;;4408468;32;20299;-82
2024/03/18 05:36:29;;;;;;;38.60;27.10;;;;;;;;;;4408406;32;20018;-82
2024/03/18 05:38:55;;;;;;;45.67;28.87;;;;;;;;;;4409236;32;20055;-81
2024/03/18 05:41:20;;;;;;;45.70;27.73;;;;;;;;;;4408358;32;20035;-81
2024/03/18 05:43:46;;;;;;;45.88;29.25;;;;;;;;;;4409173;32;20042;-83
2024/03/18 05:46:11;;;;;;;44.03;28.87;;;;;;;;;;4409454;32;20022;-82
2024/03/18 05:48:37;;;;;;;46.72;27.37;;;;;;;;;;4410289;32;20061;-82
2024/03/18 05:51:03;;;;;;;48.95;29.25;;;;;;;;;;4412399;32;20219;-80
2024/03/18 05:53:28;;;;;;;45.72;29.33;;;;;;;;;;4415055;32;20027;-80
2024/03/18 05:55:53;;;;;;;;;;;;;;;;;;4411740;32;20017;-80
2024/03/18 05:58:18;;;;;;;50.75;29.92;;;;;;;;;;4408802;32;19937;-80
2024/03/18 06:00:43;;;;;;;46.50;30.48;;;;;;;;;;4409140;32;20022;-80
2024/03/18 06:03:09;;;;;;;47.30;28.65;;;;;;;;;;4408925;32;20030;-81
2024/03/18 06:05:34;;;;;;;55.75;31.77;;;;;;;;;;4422223;32;20085;-81
2024/03/18 06:07:59;;;;;;;57.70;29.87;;;;;;;;;;4407515;32;20064;-81
2024/03/18 06:10:24;;;;;;;54.33;32.60;;;;;;;;;;4408220;32;20025;-81
2024/03/18 06:12:50;;;;;;;56.42;31.30;;;;;;;;;;4415160;32;20046;-80
2024/03/18 06:15:15;;;;;;;53.42;32.33;;;;;;;;;;4400291;32;20210;-80
2024/03/18 06:17:40;;;;;;;55.00;31.90;;;;;;;;;;4392360;32;20058;-79
2024/03/18 06:20:07;;;;;;;;;;;;;;;;;;4392609;32;20026;-80
2024/03/18 06:22:38;;;;;;;53.70;30.55;;;;;;;;;;4406228;32;19942;-80
2024/03/18 06:27:51;;;;;;;56.50;33.03;;;;;;;;;;4407065;32;20065;-80
2024/03/18 06:30:16;;;;;;;59.78;34.72;;;;;;;;;;4406498;32;20018;-79
2024/03/18 06:32:41;;;;;;;57.53;31.62;;;;;;;;;;4407090;32;20340;-79
2024/03/18 06:35:10;;;;;;;70.40;35.30;;;;;;;;;;4406505;32;20035;-79
2024/03/18 06:37:39;;;;;;;64.53;35.15;;;;;;;;;;4406888;32;20342;-80
2024/03/18 06:40:07;;;;;;;54.00;32.10;;;;;;;;;;4406716;32;20038;-79
2024/03/18 06:42:33;;;;;;;63.83;34.35;;;;;;;;;;4406190;32;20070;-79
2024/03/18 06:44:58;;;;;;;;;;;;;;;;;;4398137;32;20332;-79
2024/03/18 06:47:25;;;;;;;63.55;34.10;;;;;;;;;;4392167;32;20014;-78
2024/03/18 06:49:51;;;;;;;78.30;35.80;;;;;;;;;;4378983;32;20030;-78
2024/03/18 06:52:16;;;;;;;;;;;;;;;;;;4391532;32;20075;-80
2024/03/18 06:54:41;;;;;;;66.90;33.92;;;;;;;;;;4391562;32;20024;-80
2024/03/18 06:57:07;;;;;;;82.68;34.78;;;;;;;;;;4391810;32;20186;-80
2024/03/18 06:59:33;;;;;;;69.50;34.65;;;;;;;;;;4412519;32;20064;-79
2024/03/18 07:02:00;;;;;;;64.70;34.22;;;;;;;;;;4406197;32;20052;-79
2024/03/18 07:04:25;;;;;;;62.22;33.17;;;;;;;;;;4406154;32;20094;-80
2024/03/18 07:06:50;;;;;;;;;;;;;;;;;;4421170;32;20415;-78
2024/03/18 07:09:15;;;;;;;68.65;33.30;;;;;;;;;;4419571;32;19947;-79
2024/03/18 07:11:40;;;;;;;72.47;31.83;;;;;;;;;;4406260;32;20439;-79
2024/03/18 07:14:06;;;;;;;84.85;35.30;;;;;;;;;;4421523;32;20332;-79
2024/03/18 07:16:31;;;;;;;81.47;35.40;;;;;;;;;;4406464;32;20595;-78
2024/03/18 07:18:56;;;;;;;78.22;34.63;;;;;;;;;;4420553;32;20071;-78
2024/03/18 07:21:22;;;;;;;76.25;33.25;;;;;;;;;;4392507;32;20479;-78
2024/03/18 07:23:47;;;;;;;68.03;32.60;;;;;;;;;;4392162;32;20053;-78
2024/03/18 07:26:12;;;;;;;57.92;30.02;;;;;;;;;;4418384;32;20143;-78
2024/03/18 07:28:37;;;;;;;72.53;33.17;;;;;;;;;;4420993;32;20054;-77
2024/03/18 07:31:06;;;;;;;57.03;30.98;;;;;;;;;;4405907;32;20119;-77
2024/03/18 07:33:32;;;;;;;72.45;33.38;;;;;;;;;;4420064;32;20074;-78
2024/03/18 07:35:57;;;;;;;74.05;36.35;;;;;;;;;;4407039;32;20382;-77
2024/03/18 07:38:22;;;;;;;;;;;;;;;;;;4420615;32;20057;-78
2024/03/18 07:40:48;;;;;;;59.20;33.35;;;;;;;;;;4420220;32;19941;-77
2024/03/18 07:43:14;;;;;;;;;;;;;;;;;;4419931;32;20037;-77
2024/03/18 07:45:39;;;;;;;71.40;34.20;;;;;;;;;;4419927;32;20318;-77
2024/03/18 07:48:05;;;;;;;69.82;33.63;;;;;;;;;;4419500;32;20026;-76
2024/03/18 07:50:34;;;;;;;64.25;32.70;;;;;;;;;;4406382;32;20018;-77
2024/03/18 07:53:00;;;;;;;62.00;30.90;;;;;;;;;;4420049;32;20030;-78
2024/03/18 07:55:25;;;;;;;;;;;;;;;;;;4420982;32;20048;-77
2024/03/18 07:57:50;;;;;;;50.97;27.15;;;;;;;;;;4420623;32;20302;-77
2024/03/18 08:00:15;;;;;;;;;;;;;;;;;;4420188;32;20167;-77
2024/03/18 08:02:41;;;;;;;57.08;25.40;;;;;;;;;;4406403;32;20065;-77
2024/03/18 08:05:07;;;;;;;54.53;24.92;;;;;;;;;;4416419;32;20175;-78
2024/03/18 08:07:32;;;;;;;;;;;;;;;;;;4398499;32;20043;-78
2024/03/18 08:09:57;;;;;;;46.88;21.00;;;;;;;;;;4406256;32;19966;-78
2024/03/18 08:12:22;;;;;;;51.53;22.35;;;;;;;;;;4390558;32;20069;-77
2024/03/18 08:14:48;;;;;;;46.35;21.50;;;;;;;;;;4391046;32;20305;-76
2024/03/18 08:17:14;;;;;;;55.45;22.60;;;;;;;;;;4390515;32;20088;-76
2024/03/18 08:19:39;;;;;;;53.92;21.95;;;;;;;;;;4412295;32;20080;-77
2024/03/18 08:22:05;;;;;;;46.33;22.13;;;;;;;;;;4405664;32;20045;-76
2024/03/18 08:24:30;;;;;;;42.70;19.27;;;;;;;;;;4406939;32;20101;-77
2024/03/18 08:26:57;;;;;;;43.38;20.00;;;;;;;;;;4413602;32;20025;-75
2024/03/18 08:29:23;;;;;;;51.55;20.30;;;;;;;;;;4396490;32;20106;-76
2024/03/18 08:31:48;;;;;;;38.08;19.12;;;;;;;;;;4390304;32;20083;-76
2024/03/18 08:34:13;;;;;;;38.97;19.95;;;;;;;;;;4405401;32;20049;-77
2024/03/18 08:36:38;;;;;;;40.08;19.83;;;;;;;;;;4404864;32;20335;-76
2024/03/18 08:39:04;;;;;;;45.70;20.25;;;;;;;;;;4406165;32;20038;-77
2024/03/18 08:41:30;;;;;;;43.42;20.37;;;;;;;;;;4405491;32;20037;-78
2024/03/18 08:43:55;;;;;;;41.60;19.83;;;;;;;;;;4420507;32;20072;-76
2024/03/18 08:46:20;;;;;;;51.95;17.70;;;;;;;;;;4405826;32;20044;-82
2024/03/18 08:48:45;;;;;;;35.15;16.80;;;;;;;;;;4420125;32;20038;-81
2024/03/18 08:51:11;;;;;;;39.53;16.08;;;;;;;;;;4418731;32;20459;-76
2024/03/18 08:53:36;;;;;;;37.00;13.85;;;;;;;;;;4419808;32;20046;-77
2024/03/18 08:56:01;;;;;;;32.15;12.93;;;;;;;;;;4404101;32;20063;-76
2024/03/18 08:58:26;;;;;;;27.77;12.43;;;;;;;;;;4420307;32;20136;-76
2024/03/18 09:00:53;;;;;;;24.23;10.75;;;;;;;;;;4403431;32;20441;-76
2024/03/18 09:03:18;;;;;;;26.40;10.98;;;;;;;;;;4405385;32;20046;-75
2024/03/18 09:05:53;;;;;;;30.08;10.48;;;;;;;;;;4391697;32;20422;-76
2024/03/18 09:08:18;;;;;;;33.97;10.27;;;;;;;;;;4390406;32;20026;-76
2024/03/18 09:10:43;;;;;;;32.05;10.65;;;;;;;;;;4403943;32;20395;-76
2024/03/18 09:13:11;;;;;;;34.72;8.98;;;;;;;;;;4389951;32;20408;-76
2024/03/18 09:15:37;;;;;;;29.50;8.52;;;;;;;;;;4417466;32;20390;-76
2024/03/18 09:18:02;;;;;;;25.33;9.35;;;;;;;;;;4404896;32;20428;-76
2024/03/18 09:20:27;;;;;;;26.73;7.10;;;;;;;;;;4408350;32;20072;-76
2024/03/18 09:22:54;;;;;;;29.58;8.82;;;;;;;;;;4391395;32;20077;-75
2024/03/18 09:25:20;;;;;;;20.58;6.45;;;;;;;;;;4414272;32;20101;-75
2024/03/18 09:27:45;;;;;;;15.20;5.57;;;;;;;;;;4406327;32;20026;-76
2024/03/18 09:30:11;;;;;;;18.02;4.65;;;;;;;;;;4405194;32;20461;-75
2024/03/18 09:32:36;;;;;;;15.10;3.78;;;;;;;;;;4408255;32;20056;-75
2024/03/18 09:35:01;;;;;;;17.08;4.37;;;;;;;;;;4408046;32;20030;-75
2024/03/18 09:37:28;;;;;;;12.45;3.20;;;;;;;;;;4407560;32;20022;-75
2024/03/18 09:39:53;;;;;;;13.65;3.30;;;;;;;;;;4421386;32;20489;-75
2024/03/18 09:42:19;;;;;;;15.23;3.20;;;;;;;;;;4422552;32;20139;-76
2024/03/18 09:44:44;;;;;;;12.23;3.40;;;;;;;;;;4408390;32;20407;-76
2024/03/18 09:47:16;;;;;;;18.75;3.60;;;;;;;;;;4408578;32;20033;-76
2024/03/18 09:49:42;;;;;;;8.90;2.62;;;;;;;;;;4407826;32;20022;-77
2024/03/18 09:52:07;;;;;;;14.48;3.35;;;;;;;;;;4406987;32;20100;-76
2024/03/18 09:54:33;;;;;;;11.68;2.95;;;;;;;;;;4417987;32;20058;-77
2024/03/18 09:56:58;;;;;;;12.60;2.75;;;;;;;;;;4403135;32;20083;-77
2024/03/18 09:59:23;;;;;;;15.73;2.78;;;;;;;;;;4421242;32;20053;-77
2024/03/18 10:01:48;;;;;;;7.43;2.47;;;;;;;;;;4402226;32;20026;-76
2024/03/18 10:04:13;;;;;;;14.87;3.05;;;;;;;;;;4407837;32;20030;-76
2024/03/18 10:06:39;;;;;;;14.25;2.92;;;;;;;;;;4407904;32;20064;-76
2024/03/18 10:09:05;;;;;;;10.60;2.50;;;;;;;;;;4421662;32;20132;-76
2024/03/18 10:11:30;;;;;;;14.38;3.60;;;;;;;;;;4408643;32;20039;-75
2024/03/18 10:13:55;;;;;;;10.98;2.40;;;;;;;;;;4408096;32;20072;-74
2024/03/18 10:16:21;;;;;;;14.43;2.37;;;;;;;;;;4422245;32;20026;-72
2024/03/18 10:18:47;;;;;;;7.70;2.25;;;;;;;;;;4421059;32;20026;-73
2024/03/18 10:21:12;;;;;;;7.68;2.45;;;;;;;;;;4412218;32;20033;-73
2024/03/18 10:23:40;;;;;;;10.80;2.72;;;;;;;;;;4420918;32;20139;-74
2024/03/18 10:26:05;;;;;;;8.77;2.42;;;;;;;;;;4407012;32;20419;-74
2024/03/18 10:28:30;;;;;;;10.82;2.87;;;;;;;;;;4411513;32;20045;-74
2024/03/18 10:30:56;;;;;;;8.23;2.75;;;;;;;;;;4407389;32;20052;-74
2024/03/18 10:33:22;;;;;;;8.95;2.33;;;;;;;;;;4412161;32;20348;-73
2024/03/18 10:35:48;;;;;;;10.88;2.85;;;;;;;;;;4405280;32;20064;-74
2024/03/18 10:38:21;;;;;;;9.25;2.75;;;;;;;;;;4391067;32;20425;-73
2024/03/18 10:40:48;;;;;;;10.98;3.15;;;;;;;;;;4406172;32;20045;-74
2024/03/18 10:43:17;;;;;;;11.48;2.72;;;;;;;;;;4392597;32;20066;-74
2024/03/18 10:45:47;;;;;;;9.00;2.55;;;;;;;;;;4391268;32;20442;-73
2024/03/18 10:48:15;;;;;;;9.82;2.33;;;;;;;;;;4394246;32;20351;-74
2024/03/18 10:50:41;;;;;;;6.80;2.97;;;;;;;;;;4405032;32;20027;-75
2024/03/18 10:53:14;;;;;;;7.35;2.22;;;;;;;;;;4391519;32;20030;-73
2024/03/18 10:55:40;;;;;;;8.45;2.42;;;;;;;;;;4405391;32;20022;-75
2024/03/18 10:58:05;;;;;;;13.48;2.80;;;;;;;;;;4405365;32;20042;-74
2024/03/18 11:00:30;;;;;;;10.98;3.20;;;;;;;;;;4405340;32;20049;-76
2024/03/18 11:02:56;;;;;;;15.25;2.62;;;;;;;;;;4401908;32;20019;-76
2024/03/18 11:05:22;;;;;;;9.95;2.92;;;;;;;;;;4420290;32;20053;-75
2024/03/18 11:07:47;;;;;;;8.43;2.42;;;;;;;;;;4420427;32;20059;-75
2024/03/18 11:10:12;;;;;;;8.32;2.45;;;;;;;;;;4421051;32;20041;-76
2024/03/18 11:12:38;;;;;;;12.37;2.42;;;;;;;;;;4405809;32;20122;-75
2024/03/18 11:15:09;;;;;;;8.45;2.70;;;;;;;;;;4421644;32;20065;-75
2024/03/18 11:17:48;;;;;;;7.82;2.22;;;;;;;;;;4420657;32;20026;-75
2024/03/18 11:20:17;;;;;;;10.85;2.65;;;;;;;;;;4405724;32;20022;-76
2024/03/18 11:22:46;;;;;;;17.10;4.12;;;;;;;;;;4417828;32;20409;-75
2024/03/18 11:25:18;;;;;;;12.70;3.55;;;;;;;;;;4403936;32;20437;-75
2024/03/18 11:27:47;;;;;;;6.28;2.08;;;;;;;;;;4404965;32;20084;-76
2024/03/18 11:30:22;;;;;;;8.88;2.33;;;;;;;;;;4405769;32;20048;-76
2024/03/18 11:32:50;;;;;;;8.82;2.30;;;;;;;;;;4405945;32;20296;-75
2024/03/18 11:35:17;;;;;;;8.75;2.17;;;;;;;;;;4419892;32;20435;-74
2024/03/18 11:37:44;;;;;;;9.05;2.70;;;;;;;;;;4396737;32;20065;-75
2024/03/18 11:40:12;;;;;;;7.80;2.90;;;;;;;;;;4404208;32;20026;-75
2024/03/18 11:42:37;;;;;;;7.70;3.15;;;;;;;;;;4405227;32;20030;-76
2024/03/18 11:45:03;;;;;;;6.33;2.17;;;;;;;;;;4405575;32;20355;-75
2024/03/18 11:47:28;;;;;;;7.72;2.85;;;;;;;;;;4391009;32;20122;-75
2024/03/18 11:50:06;;;;;;;7.20;2.37;;;;;;;;;;4407978;32;20359;-75
2024/03/18 11:52:31;;;;;;;8.95;2.65;;;;;;;;;;4411987;32;20034;-75
2024/03/18 11:54:57;;;;;;;7.10;2.33;;;;;;;;;;4390649;32;20026;-75
2024/03/18 11:57:22;;;;;;;11.27;2.67;;;;;;;;;;4390600;32;20019;-75
2024/03/18 11:59:49;;;;;;;9.40;2.72;;;;;;;;;;4390969;32;20052;-75
2024/03/18 12:02:14;;;;;;;12.63;3.62;;;;;;;;;;4399012;32;20057;-77
2024/03/18 12:04:39;;;;;;;9.40;3.00;;;;;;;;;;4407123;32;20184;-74
2024/03/18 12:07:07;;;;;;;13.70;3.12;;;;;;;;;;4418778;32;20427;-75
2024/03/18 12:09:34;;;;;;;8.63;2.30;;;;;;;;;;4393817;32;20022;-74
2024/03/18 12:12:00;;;;;;;9.93;2.55;;;;;;;;;;4403816;32;20058;-74
2024/03/18 12:14:25;;;;;;;5.22;2.12;;;;;;;;;;4391285;32;20030;-75
2024/03/18 12:16:52;;;;;;;9.80;3.40;;;;;;;;;;4396158;32;20093;-75
2024/03/18 12:19:17;;;;;;;6.90;2.30;;;;;;;;;;4404203;32;20101;-75
2024/03/18 12:21:42;;;;;;;9.50;2.53;;;;;;;;;;4404802;32;20053;-75
2024/03/18 12:29:37;;;;;;;9.55;3.92;;;;;;;;;;4422447;32;20067;-75
2024/03/18 12:32:03;;;;;;;5.78;2.30;;;;;;;;;;4422534;32;20022;-74
2024/03/18 12:34:29;;;;;;;5.47;2.05;;;;;;;;;;4420049;32;20030;-75
2024/03/18 12:36:54;;;;;;;5.45;2.30;;;;;;;;;;4418746;32;20057;-74
2024/03/18 12:39:19;;;;;;;8.00;3.00;;;;;;;;;;4421495;32;20026;-75
2024/03/18 12:41:45;;;;;;;8.57;2.62;;;;;;;;;;4419971;32;20396;-74
2024/03/18 12:44:10;;;;;;;9.73;2.97;;;;;;;;;;4407298;32;20452;-75
2024/03/18 12:46:36;;;;;;;9.95;2.53;;;;;;;;;;4419538;32;20030;-75
2024/03/18 12:49:05;;;;;;;7.65;2.17;;;;;;;;;;4420277;32;20048;-74
2024/03/18 12:51:32;;;;;;;6.90;2.30;;;;;;;;;;4405845;32;20052;-75
2024/03/18 12:53:57;;;;;;;12.98;3.30;;;;;;;;;;4405671;32;20420;-74
2024/03/18 12:56:25;;;;;;;7.80;1.90;;;;;;;;;;4405222;32;20053;-74
2024/03/18 12:58:50;;;;;;;8.43;2.40;;;;;;;;;;4405697;32;20018;-75
2024/03/18 13:01:17;;;;;;;12.30;2.58;;;;;;;;;;4394566;32;20388;-74
2024/03/18 13:03:42;;;;;;;5.60;2.10;;;;;;;;;;4393503;32;20169;-75
2024/03/18 13:06:07;;;;;;;8.05;2.33;;;;;;;;;;4411588;32;20030;-74
2024/03/18 13:08:33;;;;;;;6.72;2.65;;;;;;;;;;4409171;32;20029;-75
2024/03/18 13:10:58;;;;;;;6.53;2.05;;;;;;;;;;4424014;32;20029;-75
2024/03/18 13:13:27;;;;;;;7.12;2.42;;;;;;;;;;4405726;32;20066;-74
2024/03/18 13:15:58;;;;;;;9.60;2.80;;;;;;;;;;4406929;32;20030;-77
2024/03/18 13:18:27;;;;;;;9.15;2.65;;;;;;;;;;4408002;32;20085;-75
2024/03/18 13:20:53;;;;;;;7.22;2.58;;;;;;;;;;4407213;32;20034;-74
2024/03/18 13:23:20;;;;;;;7.30;2.40;;;;;;;;;;4405614;32;20042;-75
2024/03/18 13:25:47;;;;;;;6.05;2.83;;;;;;;;;;4391187;32;20050;-75
2024/03/18 13:28:13;;;;;;;9.55;2.60;;;;;;;;;;4390008;32;20026;-75
2024/03/18 13:30:38;;;;;;;13.27;2.72;;;;;;;;;;4390112;32;20026;-75
2024/03/18 13:33:04;;;;;;;13.43;3.83;;;;;;;;;;4392544;32;20069;-75
2024/03/18 13:35:30;;;;;;;9.57;3.37;;;;;;;;;;4392033;32;20173;-74
2024/03/18 13:37:56;;;;;;;7.97;2.87;;;;;;;;;;4405263;32;20031;-74
2024/03/18 13:40:21;;;;;;;8.70;2.70;;;;;;;;;;4405608;32;20053;-75
2024/03/18 13:42:47;;;;;;;8.45;2.50;;;;;;;;;;4407590;32;20389;-75
2024/03/18 13:45:12;;;;;;;10.55;3.30;;;;;;;;;;4405905;32;20076;-75
2024/03/18 13:47:38;;;;;;;14.43;2.80;;;;;;;;;;4405314;32;20042;-77
2024/03/18 13:50:04;;;;;;;14.15;3.28;;;;;;;;;;4405189;32;20049;-76
2024/03/18 13:52:29;;;;;;;7.55;2.80;;;;;;;;;;4407246;32;20053;-76
2024/03/18 13:54:54;;;;;;;9.07;2.70;;;;;;;;;;4405307;32;20023;-76
2024/03/18 13:57:19;;;;;;;11.85;3.10;;;;;;;;;;4395307;32;20352;-76
2024/03/18 13:59:49;;;;;;;10.15;2.78;;;;;;;;;;4395000;32;20057;-75
2024/03/18 14:02:14;;;;;;;10.23;3.05;;;;;;;;;;4404915;32;20034;-76
2024/03/18 14:04:43;;;;;;;8.02;2.53;;;;;;;;;;4407132;32;20104;-76
2024/03/18 14:07:09;;;;;;;11.50;2.95;;;;;;;;;;4399310;32;20022;-76
2024/03/18 14:09:34;;;;;;;10.02;2.47;;;;;;;;;;4393670;32;20081;-76
2024/03/18 14:12:00;;;;;;;16.35;3.12;;;;;;;;;;4395419;32;20341;-76
2024/03/18 14:14:32;;;;;;;11.43;2.85;;;;;;;;;;4391547;32;20438;-76
2024/03/18 14:17:04;;;;;;;9.30;2.72;;;;;;;;;;4391395;32;20064;-76
2024/03/18 14:19:30;;;;;;;10.45;2.72;;;;;;;;;;4401506;32;20038;-76
2024/03/18 14:22:00;;;;;;;8.88;2.75;;;;;;;;;;4406570;32;20123;-75
2024/03/18 14:24:26;;;;;;;11.45;2.80;;;;;;;;;;4408580;32;20338;-76
2024/03/18 14:26:51;;;;;;;10.50;3.03;;;;;;;;;;4408528;32;20049;-76
2024/03/18 14:29:17;;;;;;;11.73;3.05;;;;;;;;;;4420774;32;20038;-76
2024/03/18 14:31:42;;;;;;;10.40;3.12;;;;;;;;;;4405634;32;20121;-76
2024/03/18 14:34:08;;;;;;;12.77;2.92;;;;;;;;;;4406771;32;20018;-75
2024/03/18 14:36:36;;;;;;;11.52;2.80;;;;;;;;;;4405897;32;20054;-77
2024/03/18 14:39:04;;;;;;;8.25;2.85;;;;;;;;;;4410689;32;20022;-76